createdAt,value
2019-03-22T00:01:00.405Z,54.43
2019-03-22T00:03:28.023Z,54.30
2019-03-22T00:05:55.453Z,54.07
2019-03-22T00:08:22.861Z,53.79
2019-03-22T00:10:50.252Z,54.34
2019-03-22T00:13:17.658Z,54.82
2019-03-22T00:15:45.112Z,54.87
2019-03-22T00:18:12.566Z,55.01
2019-03-22T00:20:40.127Z,55.46
2019-03-22T00:23:08.038Z,55.97
2019-03-22T00:25:35.882Z,56.22
2019-03-22T00:28:03.310Z,56.41
2019-03-22T00:30:30.928Z,56.56
2019-03-22T00:32:58.329Z,56.81
2019-03-22T00:35:25.770Z,56.88
2019-03-22T00:37:54.135Z,56.94
2019-03-22T00:40:21.549Z,57.15
2019-03-22T00:42:48.971Z,57.42
2019-03-22T00:45:16.374Z,57.48
2019-03-22T00:47:43.805Z,57.54
2019-03-22T00:50:11.198Z,57.50
2019-03-22T00:52:38.617Z,57.64
2019-03-22T00:55:06.006Z,57.30
2019-03-22T00:57:33.424Z,57.18
2019-03-22T01:00:00.985Z,57.35
2019-03-22T01:02:28.553Z,57.50
2019-03-22T01:04:55.934Z,57.94
2019-03-22T01:07:23.341Z,58.16
2019-03-22T01:09:50.745Z,58.32
2019-03-22T01:12:18.161Z,58.46
2019-03-22T01:14:45.638Z,58.67
2019-03-22T01:17:13.158Z,58.99
2019-03-22T01:19:40.624Z,59.07
2019-03-22T01:22:08.063Z,59.05
2019-03-22T01:24:35.484Z,59.12
2019-03-22T01:27:03.042Z,59.29
2019-03-22T01:29:30.452Z,59.51
2019-03-22T01:31:57.867Z,59.67
2019-03-22T01:34:25.343Z,59.76
2019-03-22T01:36:52.781Z,59.76
2019-03-22T01:39:20.187Z,59.76
2019-03-22T01:41:47.600Z,59.63
2019-03-22T01:44:15.000Z,59.62
2019-03-22T01:46:42.578Z,59.82
2019-03-22T01:49:10.033Z,60.08
2019-03-22T01:51:37.642Z,60.38
2019-03-22T01:54:06.014Z,60.50
2019-03-22T01:56:33.427Z,60.63
2019-03-22T01:59:00.838Z,60.77
2019-03-22T02:01:28.356Z,60.67
2019-03-22T02:03:55.794Z,60.72
2019-03-22T02:06:23.229Z,60.65
2019-03-22T02:08:50.642Z,60.63
2019-03-22T02:11:18.183Z,60.38
2019-03-22T02:13:45.955Z,60.11
2019-03-22T02:16:13.348Z,59.79
2019-03-22T02:18:40.790Z,59.64
2019-03-22T02:21:08.419Z,59.49
2019-03-22T02:23:35.795Z,59.41
2019-03-22T02:26:03.209Z,59.43
2019-03-22T02:28:30.619Z,59.15
2019-03-22T02:30:58.182Z,59.20
2019-03-22T02:33:25.711Z,59.66
2019-03-22T02:35:53.109Z,59.99
2019-03-22T02:38:20.520Z,60.30
2019-03-22T02:40:47.930Z,60.79
2019-03-22T02:43:15.348Z,61.15
2019-03-22T02:45:43.981Z,61.42
2019-03-22T02:48:11.389Z,61.46
2019-03-22T02:50:38.837Z,61.29
2019-03-22T02:53:07.018Z,61.02
2019-03-22T02:55:34.553Z,60.44
2019-03-22T02:58:01.988Z,60.17
2019-03-22T03:00:29.406Z,59.95
2019-03-22T03:02:56.801Z,59.73
2019-03-22T03:05:24.219Z,59.73
2019-03-22T03:07:51.623Z,59.69
2019-03-22T03:10:19.258Z,59.66
2019-03-22T03:12:46.821Z,59.98
2019-03-22T03:15:14.215Z,60.21
2019-03-22T03:17:41.807Z,60.77
2019-03-22T03:20:09.861Z,61.34
2019-03-22T03:22:37.311Z,61.40
2019-03-22T03:25:06.183Z,61.33
2019-03-22T03:27:33.582Z,61.22
2019-03-22T03:30:01.065Z,61.42
2019-03-22T03:32:28.724Z,61.86
2019-03-22T03:34:56.138Z,62.41
2019-03-22T03:37:23.523Z,62.81
2019-03-22T03:39:50.980Z,62.62
2019-03-22T03:42:18.995Z,62.26
2019-03-22T03:44:46.382Z,62.21
2019-03-22T03:47:13.869Z,62.21
2019-03-22T03:49:41.265Z,62.23
2019-03-22T03:52:08.846Z,62.25
2019-03-22T03:54:36.715Z,62.37
2019-03-22T03:57:04.313Z,62.56
2019-03-22T03:59:31.720Z,62.65
2019-03-22T04:01:59.542Z,62.52
2019-03-22T04:04:27.029Z,62.20
2019-03-22T04:06:54.359Z,62.06
2019-03-22T04:09:21.875Z,62.29
2019-03-22T04:11:49.307Z,62.39
2019-03-22T04:14:16.763Z,62.68
2019-03-22T04:16:44.171Z,63.04
2019-03-22T04:19:11.581Z,63.11
2019-03-22T04:21:39.069Z,63.15
2019-03-22T04:24:06.654Z,63.06
2019-03-22T04:26:34.085Z,63.00
2019-03-22T04:29:07.645Z,63.03
2019-03-22T04:31:28.955Z,63.03
2019-03-22T04:33:56.381Z,63.17
2019-03-22T04:36:24.539Z,63.38
2019-03-22T04:38:51.932Z,63.67
2019-03-22T04:41:19.334Z,63.66
2019-03-22T04:43:46.720Z,63.46
2019-03-22T04:46:14.146Z,63.02
2019-03-22T04:48:42.633Z,62.48
2019-03-22T04:51:10.034Z,62.25
2019-03-22T04:53:37.532Z,62.14
2019-03-22T04:56:04.978Z,62.18
2019-03-22T04:58:32.409Z,62.11
2019-03-22T05:00:59.889Z,62.09
2019-03-22T05:03:27.376Z,62.04
2019-03-22T05:05:54.771Z,62.05
2019-03-22T05:08:22.176Z,62.03
2019-03-22T05:10:49.576Z,62.03
2019-03-22T05:13:16.980Z,62.19
2019-03-22T05:15:44.423Z,62.40
2019-03-22T05:18:11.810Z,62.58
2019-03-22T05:20:39.206Z,62.55
2019-03-22T05:23:06.634Z,62.87
2019-03-22T05:25:34.090Z,63.21
2019-03-22T05:28:01.482Z,63.32
2019-03-22T05:33:31.054Z,62.70
2019-03-22T05:35:58.489Z,62.17
2019-03-22T05:38:25.944Z,62.10
2019-03-22T05:40:53.342Z,62.05
2019-03-22T05:43:20.759Z,62.67
2019-03-22T05:45:48.175Z,63.64
2019-03-22T05:48:15.637Z,64.20
2019-03-22T05:50:43.039Z,64.24
2019-03-22T05:53:10.505Z,64.29
2019-03-22T05:55:37.899Z,64.27
2019-03-22T05:58:05.302Z,64.30
2019-03-22T06:00:32.729Z,64.17
2019-03-22T06:03:00.133Z,64.05
2019-03-22T06:05:27.567Z,64.07
2019-03-22T06:07:54.967Z,64.03
2019-03-22T06:10:22.431Z,64.69
2019-03-22T06:12:50.052Z,64.43
2019-03-22T06:15:17.448Z,64.09
2019-03-22T06:17:51.592Z,63.37
2019-03-22T06:20:12.330Z,62.56
2019-03-22T06:22:39.711Z,61.92
2019-03-22T06:25:07.162Z,61.03
2019-03-22T06:27:34.574Z,60.48
2019-03-22T06:30:01.968Z,60.12
2019-03-22T06:32:29.413Z,59.92
2019-03-22T06:34:56.825Z,59.85
2019-03-22T06:37:24.239Z,59.77
2019-03-22T06:39:51.653Z,59.48
2019-03-22T06:42:19.871Z,59.04
2019-03-22T06:44:47.457Z,58.90
2019-03-22T06:47:14.899Z,58.63
2019-03-22T06:49:42.334Z,58.40
2019-03-22T06:52:09.952Z,57.97
2019-03-22T06:54:37.446Z,57.52
2019-03-22T06:57:04.875Z,57.09
2019-03-22T06:59:32.324Z,56.96
2019-03-22T07:01:59.756Z,56.89
2019-03-22T07:04:27.434Z,56.61
2019-03-22T07:06:54.902Z,56.57
2019-03-22T07:09:22.309Z,56.42
2019-03-22T07:11:49.919Z,55.98
2019-03-22T07:14:17.325Z,55.36
2019-03-22T07:16:44.833Z,55.22
2019-03-22T07:19:12.233Z,54.93
2019-03-22T07:21:39.670Z,54.51
2019-03-22T07:24:07.232Z,54.23
2019-03-22T07:26:34.646Z,53.84
2019-03-22T07:29:01.650Z,53.47
2019-03-22T07:31:28.598Z,53.51
2019-03-22T07:33:55.548Z,53.52
2019-03-22T07:36:23.525Z,53.35
2019-03-22T07:38:51.778Z,52.85
2019-03-22T07:41:18.712Z,52.13
2019-03-22T07:43:45.950Z,52.28
2019-03-22T07:46:13.959Z,52.03
2019-03-22T07:48:42.443Z,51.42
2019-03-22T07:51:09.425Z,51.23
2019-03-22T07:53:36.841Z,51.36
2019-03-22T07:56:03.999Z,51.23
2019-03-22T07:58:30.946Z,50.73
2019-03-22T08:00:58.109Z,50.33
2019-03-22T08:03:26.030Z,50.11
2019-03-22T08:05:53.125Z,49.91
2019-03-22T08:08:20.084Z,49.58
2019-03-22T08:10:47.185Z,48.96
2019-03-22T08:13:15.376Z,48.54
2019-03-22T08:15:42.471Z,47.82
2019-03-22T08:18:09.415Z,47.30
2019-03-22T08:20:38.666Z,46.80
2019-03-22T08:23:03.798Z,46.33
2019-03-22T08:25:32.445Z,46.17
2019-03-22T08:27:57.675Z,46.08
2019-03-22T08:30:24.616Z,45.80
2019-03-22T08:32:51.556Z,45.69
2019-03-22T08:35:18.642Z,45.49
2019-03-22T08:37:52.502Z,45.34
2019-03-22T08:40:12.606Z,45.26
2019-03-22T08:42:40.292Z,44.73
2019-03-22T08:45:07.711Z,44.72
2019-03-22T08:47:35.147Z,44.63
2019-03-22T08:50:02.171Z,44.59
2019-03-22T08:52:29.635Z,44.47
2019-03-22T08:54:56.991Z,44.56
2019-03-22T08:57:25.157Z,44.42
2019-03-22T08:59:51.851Z,44.11
2019-03-22T09:02:19.278Z,43.56
2019-03-22T09:04:48.195Z,42.88
2019-03-22T09:07:15.860Z,42.32
2019-03-22T09:09:43.282Z,42.16
2019-03-22T09:12:10.783Z,42.18
2019-03-22T09:14:38.322Z,42.00
2019-03-22T09:17:05.772Z,41.93
2019-03-22T09:19:33.198Z,41.76
2019-03-22T09:22:00.718Z,41.58
2019-03-22T09:24:38.488Z,41.09
2019-03-22T09:26:55.577Z,41.00
2019-03-22T09:29:23.024Z,40.82
2019-03-22T09:31:53.494Z,40.46
2019-03-22T09:34:17.741Z,40.34
2019-03-22T09:36:44.959Z,40.03
2019-03-22T09:39:12.365Z,39.58
2019-03-22T09:41:39.839Z,39.60
2019-03-22T09:44:07.289Z,39.60
2019-03-22T09:46:34.687Z,39.66
2019-03-22T09:49:02.836Z,39.75
2019-03-22T09:51:30.244Z,39.34
2019-03-22T09:53:57.178Z,38.97
2019-03-22T09:56:24.216Z,38.60
2019-03-22T09:58:51.168Z,37.67
2019-03-22T10:01:23.550Z,37.00
2019-03-22T10:03:46.049Z,37.30
2019-03-22T10:06:13.228Z,37.59
2019-03-22T10:08:40.235Z,37.68
2019-03-22T10:11:07.811Z,37.73
2019-03-22T10:13:34.781Z,37.80
2019-03-22T10:16:02.269Z,37.43
2019-03-22T10:18:29.188Z,36.86
2019-03-22T10:20:56.721Z,36.04
2019-03-22T10:23:23.889Z,35.34
2019-03-22T10:25:51.020Z,34.95
2019-03-22T10:28:18.487Z,34.51
2019-03-22T10:30:45.719Z,34.46
2019-03-22T10:33:22.740Z,34.05
2019-03-22T10:35:40.642Z,33.64
2019-03-22T10:38:16.001Z,33.25
2019-03-22T10:40:35.562Z,33.09
2019-03-22T10:43:03.976Z,33.02
2019-03-22T10:45:31.517Z,32.86
2019-03-22T10:47:58.966Z,32.71
2019-03-22T10:50:26.446Z,33.68
2019-03-22T10:52:55.062Z,33.44
2019-03-22T10:55:29.783Z,32.19
2019-03-22T10:57:50.143Z,31.92
2019-03-22T11:00:17.576Z,31.72
2019-03-22T11:02:45.224Z,31.62
2019-03-22T11:05:12.644Z,31.09
2019-03-22T11:07:40.077Z,30.98
2019-03-22T11:10:07.502Z,30.61
2019-03-22T11:12:34.469Z,30.43
2019-03-22T11:15:02.003Z,30.15
2019-03-22T11:17:29.499Z,29.75
2019-03-22T11:19:57.604Z,29.39
2019-03-22T11:22:24.721Z,29.10
2019-03-22T11:24:51.661Z,28.82
2019-03-22T11:27:19.147Z,28.58
2019-03-22T11:29:46.121Z,28.43
2019-03-22T11:32:13.159Z,28.36
2019-03-22T11:34:40.221Z,28.03
2019-03-22T11:37:07.863Z,27.77
2019-03-22T11:39:34.285Z,27.51
2019-03-22T11:42:01.296Z,27.15
2019-03-22T11:44:29.042Z,26.88
2019-03-22T11:46:56.252Z,26.49
2019-03-22T11:49:23.461Z,26.30
2019-03-22T11:51:50.407Z,26.21
2019-03-22T11:54:18.915Z,25.80
2019-03-22T11:56:46.471Z,25.44
2019-03-22T11:59:13.888Z,25.02
2019-03-22T12:01:41.313Z,24.74
2019-03-22T12:04:08.894Z,24.39
2019-03-22T12:06:36.324Z,24.13
2019-03-22T12:09:03.295Z,23.93
2019-03-22T12:11:30.255Z,23.72
2019-03-22T12:13:57.294Z,23.46
2019-03-22T12:16:24.268Z,23.21
2019-03-22T12:18:51.214Z,23.12
2019-03-22T12:21:18.324Z,22.95
2019-03-22T12:23:45.291Z,22.70
2019-03-22T12:26:12.244Z,22.71
2019-03-22T12:28:39.191Z,22.74
2019-03-22T12:31:06.621Z,22.54
2019-03-22T12:33:34.109Z,22.39
2019-03-22T12:36:01.528Z,22.46
2019-03-22T12:38:29.165Z,22.26
2019-03-22T12:40:56.590Z,21.71
2019-03-22T12:43:24.014Z,21.42
2019-03-22T12:45:51.475Z,21.23
2019-03-22T12:48:18.517Z,21.15
2019-03-22T12:50:45.669Z,21.02
2019-03-22T12:53:12.666Z,20.80
2019-03-22T12:55:39.652Z,20.73
2019-03-22T12:58:06.617Z,20.57
2019-03-22T13:00:33.860Z,20.55
2019-03-22T13:03:00.860Z,20.50
2019-03-22T13:05:27.994Z,20.54
2019-03-22T13:07:55.001Z,20.64
2019-03-22T13:10:24.347Z,20.50
2019-03-22T13:12:51.758Z,20.43
2019-03-22T13:15:19.172Z,20.54
2019-03-22T13:17:46.198Z,20.31
2019-03-22T13:20:13.173Z,20.12
2019-03-22T13:22:40.123Z,20.19
2019-03-22T13:25:07.544Z,20.25
2019-03-22T13:27:34.947Z,20.16
2019-03-22T13:30:02.539Z,20.22
2019-03-22T13:32:29.957Z,20.11
2019-03-22T13:34:57.542Z,20.22
2019-03-22T13:37:24.982Z,20.08
2019-03-22T13:39:52.402Z,20.05
2019-03-22T13:42:20.636Z,19.99
2019-03-22T13:44:48.200Z,19.80
2019-03-22T13:47:15.595Z,19.84
2019-03-22T13:49:43.665Z,19.96
2019-03-22T13:52:11.106Z,19.96
2019-03-22T13:54:38.593Z,19.87
2019-03-22T13:57:06.169Z,19.87
2019-03-22T13:59:33.875Z,19.86
2019-03-22T14:02:01.305Z,19.69
2019-03-22T14:04:28.715Z,19.68
2019-03-22T14:06:56.183Z,19.65
2019-03-22T14:09:23.837Z,19.54
2019-03-22T14:11:51.271Z,19.58
2019-03-22T14:14:18.712Z,19.55
2019-03-22T14:16:46.289Z,19.56
2019-03-22T14:19:13.849Z,19.75
2019-03-22T14:21:41.333Z,19.85
2019-03-22T14:24:08.747Z,19.94
2019-03-22T14:26:36.521Z,19.99
2019-03-22T14:29:03.494Z,20.11
2019-03-22T14:31:30.432Z,19.98
2019-03-22T14:33:57.456Z,19.74
2019-03-22T14:36:24.426Z,19.79
2019-03-22T14:38:52.695Z,19.86
2019-03-22T14:41:19.638Z,19.89
2019-03-22T14:43:46.586Z,20.04
2019-03-22T14:46:13.574Z,20.43
2019-03-22T14:48:40.578Z,20.62
2019-03-22T14:51:07.609Z,20.61
2019-03-22T14:53:34.558Z,20.57
2019-03-22T14:56:01.542Z,20.89
2019-03-22T14:58:28.612Z,21.17
2019-03-22T15:00:55.582Z,21.27
2019-03-22T15:03:24.383Z,21.36
2019-03-22T15:05:51.399Z,21.57
2019-03-22T15:08:18.361Z,21.71
2019-03-22T15:10:45.322Z,21.93
2019-03-22T15:13:12.270Z,22.01
2019-03-22T15:15:51.177Z,22.26
2019-03-22T15:18:34.830Z,22.42
2019-03-22T15:21:07.430Z,22.66
2019-03-22T15:23:46.241Z,22.63
2019-03-22T15:26:18.798Z,22.38
2019-03-22T15:28:52.203Z,22.47
2019-03-22T15:31:24.807Z,22.30
2019-03-22T15:34:05.763Z,22.18
2019-03-22T15:36:49.477Z,22.17
2019-03-22T15:39:22.504Z,22.47
2019-03-22T15:41:49.342Z,22.97
2019-03-22T15:44:16.453Z,22.83
2019-03-22T15:46:43.414Z,22.59
2019-03-22T15:49:10.660Z,22.67
2019-03-22T15:51:37.616Z,22.73
2019-03-22T15:54:04.632Z,22.78
2019-03-22T15:56:31.618Z,22.74
2019-03-22T15:58:58.834Z,22.64
2019-03-22T16:01:25.794Z,22.57
2019-03-22T16:03:52.760Z,22.63
2019-03-22T16:06:19.826Z,22.77
2019-03-22T16:08:46.870Z,22.85
2019-03-22T16:11:13.866Z,22.79
2019-03-22T16:13:40.859Z,22.88
2019-03-22T16:16:07.883Z,22.93
2019-03-22T16:18:34.879Z,23.15
2019-03-22T16:21:01.879Z,23.40
2019-03-22T16:23:28.875Z,23.52
2019-03-22T16:25:55.835Z,23.67
2019-03-22T16:28:22.884Z,24.00
2019-03-22T16:30:49.890Z,24.25
2019-03-22T16:33:16.941Z,24.29
2019-03-22T16:35:43.902Z,24.44
2019-03-22T16:38:10.887Z,24.82
2019-03-22T16:40:37.829Z,25.58
2019-03-22T16:43:04.834Z,25.88
2019-03-22T16:45:32.738Z,25.89
2019-03-22T16:47:59.705Z,26.23
2019-03-22T16:50:26.669Z,26.53
2019-03-22T16:52:53.789Z,26.62
2019-03-22T16:55:20.847Z,26.82
2019-03-22T16:57:47.788Z,27.34
2019-03-22T17:00:14.866Z,27.66
2019-03-22T17:02:42.263Z,28.34
2019-03-22T17:05:09.826Z,28.83
2019-03-22T17:07:37.236Z,29.61
2019-03-22T17:10:05.391Z,30.05
2019-03-22T17:12:32.983Z,30.35
2019-03-22T17:15:00.580Z,30.70
2019-03-22T17:17:28.006Z,31.28
2019-03-22T17:19:55.463Z,31.66
2019-03-22T17:22:22.873Z,32.08
2019-03-22T17:24:50.328Z,32.66
2019-03-22T17:27:17.938Z,33.51
2019-03-22T17:29:45.570Z,34.08
2019-03-22T17:32:13.122Z,34.83
2019-03-22T17:41:24.653Z,36.30
2019-03-22T17:43:52.093Z,36.98
2019-03-22T17:46:19.494Z,37.43
2019-03-22T17:48:46.545Z,37.93
2019-03-22T17:51:13.529Z,38.52
2019-03-22T17:53:40.557Z,38.77
2019-03-22T17:56:08.078Z,39.19
2019-03-22T17:58:35.487Z,39.75
2019-03-22T18:01:03.011Z,40.30
2019-03-22T18:03:30.576Z,40.79
2019-03-22T18:05:57.982Z,41.14
2019-03-22T18:08:25.399Z,41.71
2019-03-22T18:10:52.831Z,42.09
2019-03-22T18:13:20.499Z,42.38
2019-03-22T18:15:47.985Z,42.83
2019-03-22T18:18:15.409Z,43.45
2019-03-22T18:20:43.010Z,44.01
2019-03-22T18:23:10.422Z,44.11
2019-03-22T18:25:37.902Z,43.89
2019-03-22T18:28:05.328Z,43.68
2019-03-22T18:30:32.786Z,43.46
2019-03-22T18:33:00.356Z,43.17
2019-03-22T18:35:27.802Z,42.90
2019-03-22T18:37:55.191Z,42.64
2019-03-22T18:40:23.532Z,42.40
2019-03-22T18:42:50.972Z,42.27
2019-03-22T18:45:18.386Z,42.45
2019-03-22T18:47:45.862Z,42.75
2019-03-22T18:50:13.947Z,43.07
2019-03-22T18:52:41.346Z,43.32
2019-03-22T18:55:08.895Z,43.51
2019-03-22T18:57:36.353Z,43.65
2019-03-22T19:00:08.554Z,43.75
2019-03-22T19:02:36.110Z,43.74
2019-03-22T19:05:03.524Z,43.81
2019-03-22T19:07:30.939Z,44.02
2019-03-22T19:09:58.760Z,44.18
2019-03-22T19:12:26.491Z,44.32
2019-03-22T19:14:54.284Z,44.42
2019-03-22T19:17:21.951Z,44.44
2019-03-22T19:19:49.375Z,44.73
2019-03-22T19:22:16.821Z,45.12
2019-03-22T19:24:44.262Z,45.43
2019-03-22T19:27:11.723Z,45.57
2019-03-22T19:29:39.235Z,45.50
2019-03-22T19:32:13.440Z,45.79
2019-03-22T19:34:34.284Z,45.77
2019-03-22T19:37:01.689Z,45.84
2019-03-22T19:39:29.183Z,45.88
2019-03-22T19:41:56.615Z,46.06
2019-03-22T19:44:24.069Z,46.31
2019-03-22T19:46:51.526Z,46.52
2019-03-22T19:49:18.962Z,46.86
2019-03-22T19:51:46.383Z,47.27
2019-03-22T19:54:13.788Z,47.43
2019-03-22T19:56:41.263Z,47.56
2019-03-22T19:59:08.775Z,48.21
2019-03-22T20:01:36.306Z,48.57
2019-03-22T20:04:03.779Z,48.75
2019-03-22T20:06:31.194Z,48.58
2019-03-22T20:08:58.727Z,48.32
2019-03-22T20:11:26.263Z,48.03
2019-03-22T20:13:53.881Z,48.13
2019-03-22T20:16:21.340Z,48.22
2019-03-22T20:18:48.747Z,48.43
2019-03-22T20:21:16.253Z,48.54
2019-03-22T20:23:53.243Z,48.61
2019-03-22T20:26:11.089Z,48.84
2019-03-22T20:28:38.568Z,48.96
2019-03-22T20:31:06.238Z,49.11
2019-03-22T20:33:33.900Z,49.11
2019-03-22T20:36:01.316Z,49.35
2019-03-22T20:38:28.741Z,49.52
2019-03-22T20:40:56.158Z,49.96
2019-03-22T20:43:23.777Z,50.78
2019-03-22T20:45:51.582Z,51.67
2019-03-22T20:48:19.405Z,52.28
2019-03-22T20:50:46.813Z,52.93
2019-03-22T20:53:14.239Z,53.38
2019-03-22T20:55:41.667Z,53.56
2019-03-22T20:58:09.187Z,53.64
2019-03-22T21:00:36.629Z,53.74
2019-03-22T21:03:04.185Z,54.10
2019-03-22T21:05:31.638Z,54.75
2019-03-22T21:07:59.179Z,55.09
2019-03-22T21:10:26.620Z,55.10
2019-03-22T21:12:54.075Z,54.95
2019-03-22T21:15:24.664Z,54.79
2019-03-22T21:17:49.905Z,54.92
2019-03-22T21:20:17.319Z,55.20
2019-03-22T21:22:44.952Z,55.37
2019-03-22T21:25:12.418Z,55.30
2019-03-22T21:27:39.923Z,55.20
2019-03-22T21:30:08.541Z,54.90
2019-03-22T21:32:44.676Z,54.59
2019-03-22T21:35:03.401Z,54.39
2019-03-22T21:37:30.924Z,54.31
2019-03-22T21:39:58.327Z,54.27
2019-03-22T21:42:26.340Z,54.30
2019-03-22T21:44:53.734Z,54.33
2019-03-22T21:47:21.590Z,54.74
2019-03-22T21:49:49.003Z,54.77
2019-03-22T21:52:16.488Z,54.94
2019-03-22T21:54:43.887Z,55.54
2019-03-22T21:57:11.286Z,55.76
2019-03-22T21:59:39.559Z,55.78
2019-03-22T22:02:06.971Z,55.53
2019-03-22T22:04:34.491Z,54.91
2019-03-22T22:07:01.883Z,54.76
2019-03-22T22:09:29.302Z,54.49
2019-03-22T22:11:56.745Z,54.32
2019-03-22T22:14:24.194Z,54.34
2019-03-22T22:16:51.633Z,54.76
2019-03-22T22:19:19.435Z,54.84
2019-03-22T22:21:46.995Z,54.96
2019-03-22T22:24:14.489Z,54.88
2019-03-22T22:26:41.885Z,54.50
2019-03-22T22:29:09.625Z,54.16
2019-03-22T22:31:37.048Z,54.11
2019-03-22T22:34:04.541Z,54.10
2019-03-22T22:36:32.044Z,54.52
2019-03-22T22:39:00.231Z,54.55
2019-03-22T22:41:27.667Z,54.83
2019-03-22T22:43:55.101Z,55.03
2019-03-22T22:46:22.557Z,55.31
2019-03-22T22:48:49.984Z,55.19
2019-03-22T22:51:17.379Z,54.98
2019-03-22T22:53:44.836Z,54.89
2019-03-22T22:56:12.353Z,54.96
2019-03-22T22:58:39.759Z,54.89
2019-03-22T23:01:08.017Z,55.38
2019-03-22T23:03:35.603Z,55.74
2019-03-22T23:06:09.439Z,56.22
2019-03-22T23:08:30.419Z,56.22
2019-03-22T23:10:58.109Z,55.61
2019-03-22T23:13:26.371Z,55.13
2019-03-22T23:15:53.866Z,55.11
2019-03-22T23:18:21.258Z,55.33
2019-03-22T23:20:48.746Z,55.35
2019-03-22T23:23:16.172Z,55.25
2019-03-22T23:25:43.603Z,55.17
2019-03-22T23:28:11.087Z,55.50
2019-03-22T23:30:38.555Z,56.02
2019-03-22T23:33:05.973Z,56.07
2019-03-22T23:35:33.408Z,56.13
2019-03-22T23:38:01.540Z,56.50
2019-03-22T23:40:29.873Z,56.62
2019-03-22T23:42:57.384Z,56.94
2019-03-22T23:45:24.834Z,57.03
2019-03-22T23:47:53.028Z,57.03
2019-03-22T23:50:19.724Z,57.16
2019-03-22T23:52:47.123Z,57.13
2019-03-22T23:55:15.178Z,57.20
2019-03-22T23:57:42.584Z,57.19
